Time;durP1;ratioP1;P1;durP2;ratioP2;P2;SDS_P1;SDS_P2;PMS_P1;PMS_P2;Temp;Humidity;BMP_temperature;BMP_pressure;BME280_temperature;BME280_humidity;BME280_pressure;Samples;Min_cycle;Max_cycle;Signal;HPM_P1;HPM_P2
2022/10/07 00:00:04;;;;;;;7.32;2.40;;;;;;;14.38;67.62;100716.44;344248;28;2197;-68
2022/10/07 00:00:16;;;;;;;6.80;2.40;;;;;;;14.41;67.78;100722.47;344867;28;1838;-68
2022/10/07 00:00:28;;;;;;;6.10;2.85;;;;;;;14.41;67.63;100715.50;345111;28;1015;-68
2022/10/07 00:00:41;;;;;;;6.90;3.10;;;;;;;14.39;68.11;100712.91;344411;28;1741;-68
2022/10/07 00:00:53;;;;;;;6.68;3.10;;;;;;;14.36;67.83;100713.00;343849;28;2019;-68
2022/10/07 00:01:06;;;;;;;5.38;2.33;;;;;;;14.36;67.72;100712.16;343926;28;1666;-67
2022/10/07 00:01:18;;;;;;;4.78;2.30;;;;;;;14.38;67.74;100716.44;343832;28;1334;-67
2022/10/07 00:01:30;;;;;;;5.72;2.30;;;;;;;14.39;67.52;100707.69;344594;28;1051;-67
2022/10/07 00:01:42;;;;;;;6.40;2.47;;;;;;;14.41;67.64;100714.63;344690;28;1027;-67
2022/10/07 00:01:54;;;;;;;6.43;2.47;;;;;;;14.42;67.68;100711.13;344625;28;1031;-68
2022/10/07 00:02:06;;;;;;;6.25;2.47;;;;;;;14.43;67.90;100712.81;344540;28;1137;-68
2022/10/07 00:02:18;;;;;;;6.93;2.58;;;;;;;14.40;67.74;100708.53;343952;28;1651;-68
2022/10/07 00:02:30;;;;;;;7.72;2.95;;;;;;;14.42;67.53;100711.13;344988;28;1702;-68
2022/10/07 00:02:43;;;;;;;8.82;3.00;;;;;;;14.42;67.24;100711.13;344670;28;1225;-68
2022/10/07 00:02:55;;;;;;;9.30;2.83;;;;;;;14.38;67.03;100710.34;344872;28;1060;-68
2022/10/07 00:03:07;;;;;;;8.40;2.60;;;;;;;14.38;67.31;100713.81;344841;28;1075;-68
2022/10/07 00:03:21;;;;;;;6.03;2.42;;;;;;;14.40;67.17;100711.16;344678;28;1281;-68
2022/10/07 00:03:33;;;;;;;6.07;2.42;;;;;;;14.37;67.00;100709.50;344567;28;1773;-68
2022/10/07 00:03:45;;;;;;;5.95;2.47;;;;;;;14.36;66.72;100706.94;345159;28;1641;-68
2022/10/07 00:03:57;;;;;;;6.60;2.50;;;;;;;14.36;66.99;100713.00;344762;28;1200;-67
2022/10/07 00:04:09;;;;;;;6.70;2.40;;;;;;;14.35;67.12;100700.84;344849;28;1588;-67
2022/10/07 00:04:21;;;;;;;7.72;2.40;;;;;;;14.38;67.00;100708.56;343752;28;1477;-67
2022/10/07 00:04:33;;;;;;;5.85;2.20;;;;;;;14.39;67.26;100712.91;343784;28;1035;-67
2022/10/07 00:04:45;;;;;;;5.25;2.22;;;;;;;14.39;67.26;100702.47;343894;28;919;-67
2022/10/07 00:04:57;;;;;;;4.63;2.13;;;;;;;14.42;67.48;100705.88;344122;28;1316;-67
2022/10/07 00:05:09;;;;;;;4.85;2.40;;;;;;;14.43;67.38;100712.81;345119;28;1083;-67
2022/10/07 00:05:21;;;;;;;4.20;2.38;;;;;;;14.45;67.27;100713.66;344981;28;1452;-67
2022/10/07 00:05:35;;;;;;;5.70;2.42;;;;;;;14.44;67.11;100709.31;345147;28;1145;-67
2022/10/07 00:06:16;;;;;;;6.43;2.53;;;;;;;14.46;67.40;100702.25;345073;28;1171;-67
2022/10/07 00:06:28;;;;;;;8.30;2.50;;;;;;;14.46;67.05;100705.72;343935;28;1614;-68
2022/10/07 00:06:40;;;;;;;7.38;2.50;;;;;;;14.44;66.52;100709.31;343759;28;1107;-68
2022/10/07 00:06:53;;;;;;;6.32;2.63;;;;;;;14.40;66.68;100708.53;343619;28;1328;-68
2022/10/07 00:07:05;;;;;;;6.55;2.60;;;;;;;14.39;66.83;100707.69;343509;28;1257;-68
2022/10/07 00:07:17;;;;;;;6.93;2.35;;;;;;;14.42;66.64;100711.13;343623;28;1907;-68
2022/10/07 00:07:29;;;;;;;5.68;2.28;;;;;;;14.44;66.65;100707.53;345010;28;1054;-68
2022/10/07 00:07:41;;;;;;;5.07;2.20;;;;;;;14.47;66.49;100714.47;346223;28;1263;-68
2022/10/07 00:07:53;;;;;;;5.10;2.20;;;;;;;14.46;67.00;100710.09;307836;28;1109215;-68
2022/10/07 00:08:05;;;;;;;7.85;2.30;;;;;;;14.47;67.00;100709.22;344984;28;2101;-68
2022/10/07 00:08:17;;;;;;;7.72;2.42;;;;;;;14.48;66.90;100711.75;344791;28;1647;-68
2022/10/07 00:08:30;;;;;;;8.65;2.55;;;;;;;14.46;66.96;100712.72;344944;28;1304;-68
2022/10/07 00:08:46;;;;;;;7.47;2.35;;;;;;;14.48;67.08;100705.69;344952;28;2465;-68
2022/10/07 00:08:58;;;;;;;6.30;2.17;;;;;;;14.49;67.07;100708.25;344738;28;1228;-68
2022/10/07 00:09:10;;;;;;;6.22;2.10;;;;;;;14.45;66.67;100711.03;344769;28;1105;-68
2022/10/07 00:09:22;;;;;;;5.93;2.20;;;;;;;14.46;66.74;100702.25;345645;28;1387;-68
2022/10/07 00:09:34;;;;;;;6.82;2.35;;;;;;;14.47;66.84;100710.06;346179;28;1188;-68
2022/10/07 00:09:46;;;;;;;8.13;2.22;;;;;;;14.47;67.01;100704.84;345374;28;1274;-68
2022/10/07 00:09:58;;;;;;;7.35;2.13;;;;;;;14.49;67.14;100707.41;345093;28;1075;-68
2022/10/07 00:10:10;;;;;;;5.35;1.90;;;;;;;14.50;67.07;100714.34;345168;28;1152;-67
2022/10/07 00:10:21;;;;;;;5.03;2.00;;;;;;;14.51;67.14;100705.59;344844;28;1163;-67
2022/10/07 00:10:41;;;;;;;5.88;2.10;;;;;;;14.52;67.11;100710.75;344968;28;1039;-67
2022/10/07 00:10:53;;;;;;;6.47;2.38;;;;;;;14.51;67.05;100713.44;344875;28;1082;-67
2022/10/07 00:11:11;;;;;;;6.68;2.55;;;;;;;14.54;66.96;100710.72;344430;28;1795;-67
2022/10/07 00:11:27;;;;;;;7.20;2.33;;;;;;;14.55;67.44;100710.69;344572;28;3274;-66
2022/10/07 00:11:40;;;;;;;5.13;2.03;;;;;;;14.57;67.29;100710.66;343867;28;1794;-66
2022/10/07 00:11:51;;;;;;;5.05;2.00;;;;;;;14.59;67.27;100708.84;345108;28;1108;-67
2022/10/07 00:12:04;;;;;;;5.35;2.00;;;;;;;14.58;66.98;100712.38;345004;28;1368;-67
2022/10/07 00:12:16;;;;;;;5.20;2.20;;;;;;;14.58;67.37;100712.38;344994;28;1295;-67
2022/10/07 00:12:28;;;;;;;5.82;2.33;;;;;;;14.57;67.30;100710.66;345240;28;1248;-67
2022/10/07 00:12:40;;;;;;;4.88;2.30;;;;;;;14.58;67.14;100715.81;344739;28;2183;-67
2022/10/07 00:12:52;;;;;;;5.90;2.20;;;;;;;14.57;67.44;100715.91;345177;28;1314;-67
2022/10/07 00:13:04;;;;;;;6.15;2.13;;;;;;;14.56;67.58;100714.19;344881;28;1047;-67
2022/10/07 00:13:16;;;;;;;7.20;2.20;;;;;;;14.55;67.66;100712.44;344411;28;1776;-67
2022/10/07 00:13:28;;;;;;;5.78;2.20;;;;;;;14.52;67.74;100704.69;345086;28;1473;-67
2022/10/07 00:13:42;;;;;;;5.68;2.20;;;;;;;14.56;67.67;100708.94;345293;28;1203;-67
2022/10/07 00:14:00;;;;;;;6.35;2.22;;;;;;;14.53;67.42;100712.50;345045;28;1007;-67
2022/10/07 00:14:12;;;;;;;7.00;2.20;;;;;;;14.54;67.45;100705.50;345033;28;1047;-67
2022/10/07 00:14:24;;;;;;;6.20;2.22;;;;;;;14.57;67.26;100705.44;344987;28;1367;-67
2022/10/07 00:14:36;;;;;;;6.28;2.10;;;;;;;14.54;67.91;100705.50;345017;28;1059;-67
2022/10/07 00:14:48;;;;;;;5.55;2.20;;;;;;;14.52;67.47;100710.75;344576;28;1308;-67
2022/10/07 00:15:00;;;;;;;4.90;2.17;;;;;;;14.55;67.24;100707.22;344562;28;1698;-67
2022/10/07 00:15:12;;;;;;;3.75;2.10;;;;;;;14.56;67.22;100712.41;343454;28;1113;-67
2022/10/07 00:15:24;;;;;;;4.60;1.92;;;;;;;14.56;66.95;100709.78;344864;28;1429;-67
2022/10/07 00:15:36;;;;;;;5.65;2.10;;;;;;;14.60;66.77;100714.94;345170;28;1090;-67
2022/10/07 00:15:47;;;;;;;7.38;2.45;;;;;;;14.58;66.55;100710.59;343899;28;1708;-67
2022/10/07 00:16:05;;;;;;;7.03;2.53;;;;;;;14.60;66.40;100710.56;345212;28;1047;-67
2022/10/07 00:16:23;;;;;;;5.72;2.20;;;;;;;14.61;66.85;100706.16;345059;28;1329;-68
2022/10/07 00:16:37;;;;;;;6.32;2.00;;;;;;;14.60;66.16;100710.56;344950;28;1252;-68
2022/10/07 00:16:49;;;;;;;7.63;2.05;;;;;;;14.62;66.14;100707.91;345172;28;1039;-68
2022/10/07 00:17:01;;;;;;;6.70;2.03;;;;;;;14.61;65.97;100712.28;344882;28;1055;-68
2022/10/07 00:17:14;;;;;;;6.10;2.05;;;;;;;14.60;66.25;100705.31;345059;28;1281;-68
2022/10/07 00:17:25;;;;;;;5.20;2.00;;;;;;;14.61;66.50;100707.03;345060;28;1327;-68
2022/10/07 00:17:37;;;;;;;6.00;2.00;;;;;;;14.60;66.87;100710.56;343966;28;1050;-68
2022/10/07 00:17:49;;;;;;;5.93;2.00;;;;;;;14.56;66.05;100704.56;343914;28;1102;-68
2022/10/07 00:18:02;;;;;;;5.82;2.00;;;;;;;14.57;65.76;100705.44;343764;28;1020;-67
2022/10/07 00:18:14;;;;;;;6.78;1.90;;;;;;;14.57;66.27;100713.28;343793;28;1072;-67
2022/10/07 00:18:26;;;;;;;7.28;1.95;;;;;;;14.58;66.25;100709.75;343890;28;1266;-68
2022/10/07 00:18:39;;;;;;;5.85;2.00;;;;;;;14.61;66.22;100711.41;344773;28;1718;-68
2022/10/07 00:18:56;;;;;;;6.13;2.10;;;;;;;14.59;65.75;100708.84;343518;28;1170;-68
2022/10/07 00:19:11;;;;;;;6.32;2.20;;;;;;;14.60;65.68;100712.31;344780;28;1289;-67
2022/10/07 00:19:23;;;;;;;4.40;2.10;;;;;;;14.55;65.83;100704.59;343835;28;1829;-67
2022/10/07 00:19:36;;;;;;;5.15;2.10;;;;;;;14.57;65.73;100710.66;344562;28;1844;-67
2022/10/07 00:19:48;;;;;;;5.82;2.00;;;;;;;14.57;65.43;100705.44;344502;28;1814;-67
2022/10/07 00:20:00;;;;;;;7.28;2.20;;;;;;;14.56;65.75;100708.94;345014;28;829;-67
2022/10/07 00:20:12;;;;;;;6.10;2.10;;;;;;;14.52;65.70;100712.53;344880;28;1130;-67
2022/10/07 00:20:24;;;;;;;5.30;2.00;;;;;;;14.55;65.67;100712.44;345249;28;1396;-67
2022/10/07 00:20:39;;;;;;;6.63;2.47;;;;;;;14.55;66.03;100704.59;344623;28;2153;-68
2022/10/07 00:20:51;;;;;;;6.95;2.88;;;;;;;14.57;66.07;100705.44;345067;28;1048;-68
2022/10/07 00:21:10;;;;;;;6.65;2.60;;;;;;;14.57;66.43;100710.66;345406;28;1620;-68
2022/10/07 00:21:24;;;;;;;6.78;2.22;;;;;;;14.60;66.44;100705.31;344931;28;1271;-68
2022/10/07 00:21:37;;;;;;;5.07;2.13;;;;;;;14.58;66.54;100704.50;344795;28;1893;-68
2022/10/07 00:21:50;;;;;;;4.70;2.03;;;;;;;14.56;66.59;100708.94;344931;28;1764;-68
2022/10/07 00:22:02;;;;;;;5.35;2.10;;;;;;;14.59;66.71;100708.84;343973;28;1250;-68
2022/10/07 00:22:13;;;;;;;5.63;2.20;;;;;;;14.60;66.69;100710.56;344128;28;1722;-68
2022/10/07 00:22:25;;;;;;;4.57;2.30;;;;;;;14.61;66.58;100707.03;345109;28;1362;-68
2022/10/07 00:22:37;;;;;;;3.88;2.10;;;;;;;14.62;66.51;100703.50;344373;28;1885;-67
2022/10/07 00:22:49;;;;;;;6.00;2.15;;;;;;;14.63;66.45;100699.13;344733;28;1775;-67
2022/10/07 00:23:01;;;;;;;7.35;2.25;;;;;;;14.62;66.75;100700.88;344979;28;1272;-67
2022/10/07 00:23:13;;;;;;;5.82;2.25;;;;;;;14.63;66.75;100705.25;344899;28;1054;-67
2022/10/07 00:23:25;;;;;;;5.53;2.15;;;;;;;14.64;66.54;100701.69;345006;28;1415;-67
2022/10/07 00:23:38;;;;;;;6.50;2.10;;;;;;;14.65;66.52;100700.81;343929;28;1717;-67
2022/10/07 00:23:51;;;;;;;6.07;2.08;;;;;;;14.67;66.59;100701.63;344561;28;1559;-67
2022/10/07 00:24:04;;;;;;;5.13;1.95;;;;;;;14.67;66.51;100696.38;343876;28;1100;-67
2022/10/07 00:24:16;;;;;;;7.00;2.00;;;;;;;14.69;66.31;100705.03;343873;28;1324;-67
2022/10/07 00:24:28;;;;;;;7.93;2.08;;;;;;;14.69;66.49;100699.81;344078;28;1103;-67
2022/10/07 00:24:40;;;;;;;6.70;2.10;;;;;;;14.70;66.80;100696.25;343902;28;2078;-66
2022/10/07 00:24:52;;;;;;;5.40;2.10;;;;;;;14.69;66.54;100696.31;344216;28;1948;-66
2022/10/07 00:25:04;;;;;;;5.80;2.08;;;;;;;14.72;66.34;100699.69;345395;28;1366;-66
2022/10/07 00:25:16;;;;;;;5.22;2.00;;;;;;;14.73;66.43;100696.19;345372;28;1132;-66
2022/10/07 00:25:28;;;;;;;5.00;1.92;;;;;;;14.74;66.44;100700.50;344032;28;2274;-67
2022/10/07 00:25:40;;;;;;;4.75;2.05;;;;;;;14.75;65.92;100698.75;344665;28;1674;-67
2022/10/07 00:25:51;;;;;;;5.63;2.10;;;;;;;14.74;65.68;100700.50;344689;28;2212;-67
2022/10/07 00:26:06;;;;;;;7.10;2.10;;;;;;;14.76;65.69;100700.44;345031;28;1056;-67
2022/10/07 00:26:22;;;;;;;6.28;2.10;;;;;;;14.76;65.80;100696.06;344853;28;1270;-67
2022/10/07 00:26:35;;;;;;;7.13;2.22;;;;;;;14.77;65.79;100696.94;345178;28;1240;-67
2022/10/07 00:26:47;;;;;;;6.88;2.20;;;;;;;14.76;65.84;100696.06;344945;28;1897;-67
2022/10/07 00:27:00;;;;;;;5.05;2.08;;;;;;;14.79;65.81;100700.34;343744;28;1019;-67
2022/10/07 00:27:12;;;;;;;4.50;1.95;;;;;;;14.79;65.93;100700.34;344916;28;1181;-67
2022/10/07 00:27:24;;;;;;;4.20;2.00;;;;;;;14.77;65.87;100696.94;343844;28;1332;-67
2022/10/07 00:27:36;;;;;;;5.50;2.10;;;;;;;14.74;66.15;100697.03;343431;28;2565;-67
2022/10/07 00:27:49;;;;;;;4.22;2.00;;;;;;;14.77;66.09;100702.16;345026;28;1860;-67
2022/10/07 00:28:01;;;;;;;3.05;1.95;;;;;;;14.77;65.88;100700.41;345147;28;1511;-67
2022/10/07 00:28:13;;;;;;;3.92;1.92;;;;;;;14.74;66.15;100697.88;344621;28;3393;-67
2022/10/07 00:28:25;;;;;;;5.07;1.85;;;;;;;14.77;66.07;100703.00;344050;28;1740;-67
2022/10/07 00:28:37;;;;;;;5.45;1.83;;;;;;;14.78;66.19;100698.63;344260;28;1411;-67
2022/10/07 00:28:49;;;;;;;5.38;1.85;;;;;;;14.78;65.94;100699.47;344262;28;1764;-66
2022/10/07 00:29:03;;;;;;;4.03;1.80;;;;;;;14.80;66.37;100701.22;344370;28;1244;-67
2022/10/07 00:29:15;;;;;;;4.10;2.00;;;;;;;14.81;66.19;100698.53;344897;28;1114;-67
2022/10/07 00:29:27;;;;;;;4.72;2.08;;;;;;;14.80;66.01;100690.72;344889;28;1238;-67
2022/10/07 00:29:39;;;;;;;4.90;2.10;;;;;;;14.81;66.09;100698.53;344304;28;1702;-68
2022/10/07 00:29:51;;;;;;;5.18;2.20;;;;;;;14.79;66.25;100695.13;344786;28;1963;-68
2022/10/07 00:30:03;;;;;;;5.53;2.20;;;;;;;14.74;65.54;100697.88;343303;28;1802;-68
2022/10/07 00:30:15;;;;;;;5.65;2.35;;;;;;;14.70;65.59;100701.50;344762;28;1825;-68
2022/10/07 00:30:27;;;;;;;4.38;2.20;;;;;;;14.69;65.43;100694.56;344225;28;1701;-68
2022/10/07 00:30:39;;;;;;;5.32;2.10;;;;;;;14.69;65.35;100694.56;343519;28;1222;-68
2022/10/07 00:31:06;;;;;;;6.13;2.00;;;;;;;14.72;65.44;100694.44;343750;28;1254;-68
2022/10/07 00:31:21;;;;;;;5.75;2.00;;;;;;;14.72;65.61;100694.44;343992;28;1294;-68
2022/10/07 00:31:35;;;;;;;4.63;2.05;;;;;;;14.75;65.72;100696.13;345300;28;1016;-68
2022/10/07 00:31:47;;;;;;;4.22;1.95;;;;;;;14.75;65.60;100694.34;344329;28;1775;-67
2022/10/07 00:32:03;;;;;;;6.95;2.05;;;;;;;14.78;65.40;100696.00;344378;28;1099;-67
2022/10/07 00:32:15;;;;;;;7.55;2.03;;;;;;;14.79;64.94;100700.34;344274;28;1619;-67
2022/10/07 00:32:27;;;;;;;5.47;2.08;;;;;;;14.78;65.69;100690.78;343825;28;1137;-67
2022/10/07 00:32:38;;;;;;;4.30;1.85;;;;;;;14.80;65.76;100693.34;343698;28;1984;-67
2022/10/07 00:32:50;;;;;;;4.63;1.80;;;;;;;14.78;65.65;100694.25;344545;28;1926;-67
2022/10/07 00:33:02;;;;;;;5.65;1.92;;;;;;;14.78;65.54;100693.41;343521;28;1039;-67
2022/10/07 00:33:14;;;;;;;6.10;2.15;;;;;;;14.78;66.09;100694.25;343824;28;1276;-67
2022/10/07 00:33:30;;;;;;;7.25;2.22;;;;;;;14.80;65.56;100693.34;344985;28;1440;-66
2022/10/07 00:33:43;;;;;;;8.48;2.30;;;;;;;14.82;65.36;100683.69;344130;28;2160;-66
2022/10/07 00:33:55;;;;;;;8.40;2.40;;;;;;;14.77;65.53;100692.56;343976;28;2071;-67
2022/10/07 00:34:10;;;;;;;7.18;2.20;;;;;;;14.77;65.53;100687.31;343770;28;1080;-67
2022/10/07 00:34:22;;;;;;;6.70;2.00;;;;;;;14.77;66.28;100682.06;343559;28;1308;-67
2022/10/07 00:34:34;;;;;;;6.55;2.00;;;;;;;14.78;66.09;100689.00;344726;28;1827;-66
2022/10/07 00:34:46;;;;;;;5.32;2.00;;;;;;;14.80;65.94;100690.72;344323;28;1663;-66
2022/10/07 00:34:58;;;;;;;5.15;2.10;;;;;;;14.77;65.23;100692.56;344621;28;1888;-67
2022/10/07 00:35:09;;;;;;;6.28;2.20;;;;;;;14.72;64.77;100688.38;345111;28;1022;-67
2022/10/07 00:35:21;;;;;;;6.40;2.10;;;;;;;14.70;64.76;100687.56;344843;28;1429;-67
2022/10/07 00:35:34;;;;;;;6.35;2.05;;;;;;;14.67;65.32;100685.91;344375;28;2125;-67
2022/10/07 00:35:46;;;;;;;5.78;2.08;;;;;;;14.69;65.02;100688.44;344491;28;2056;-67
2022/10/07 00:35:58;;;;;;;4.78;2.03;;;;;;;14.68;64.70;100692.00;344193;28;2037;-68
2022/10/07 00:36:19;;;;;;;5.63;2.10;;;;;;;14.69;65.19;100689.34;345129;28;1046;-68
2022/10/07 00:36:34;;;;;;;5.38;2.10;;;;;;;14.71;65.37;100690.13;345110;28;2127;-68
2022/10/07 00:36:49;;;;;;;3.65;1.98;;;;;;;14.71;65.79;100687.53;344986;28;1022;-67
2022/10/07 00:37:01;;;;;;;5.82;2.17;;;;;;;14.70;65.95;100688.41;345164;28;1256;-67
2022/10/07 00:37:13;;;;;;;6.70;2.30;;;;;;;14.67;65.79;100682.41;346732;28;976;-67
2022/10/07 00:37:25;;;;;;;7.03;2.20;;;;;;;14.67;65.63;100683.28;345988;28;1347;-67
2022/10/07 00:37:41;;;;;;;7.05;2.20;;;;;;;14.68;65.95;100685.00;345366;28;1780;-67
2022/10/07 00:37:54;;;;;;;5.40;2.20;;;;;;;14.67;65.70;100680.69;344989;28;2019;-67
2022/10/07 00:38:06;;;;;;;4.55;2.45;;;;;;;14.69;65.98;100685.84;344927;28;1251;-66
2022/10/07 00:38:17;;;;;;;4.72;2.50;;;;;;;14.70;66.00;100684.94;345303;28;1241;-66
2022/10/07 00:38:29;;;;;;;6.70;2.20;;;;;;;14.71;66.02;100686.66;346525;28;1319;-67
2022/10/07 00:38:42;;;;;;;7.50;2.15;;;;;;;14.71;65.91;100679.66;345911;28;1826;-66
2022/10/07 00:39:02;;;;;;;6.32;2.00;;;;;;;14.73;65.93;100685.72;345128;28;2062;-67
2022/10/07 00:39:14;;;;;;;6.00;1.90;;;;;;;14.74;65.73;100682.16;345503;28;1677;-68
2022/10/07 00:39:26;;;;;;;6.68;2.00;;;;;;;14.75;65.61;100677.81;344624;28;2124;-68
2022/10/07 00:39:38;;;;;;;5.47;2.00;;;;;;;14.75;65.92;100683.91;344489;28;2257;-68
2022/10/07 00:39:50;;;;;;;4.43;1.95;;;;;;;14.77;65.81;100682.06;344542;28;1814;-68
2022/10/07 00:40:02;;;;;;;3.80;1.80;;;;;;;14.78;65.86;100683.78;343961;28;1285;-68
2022/10/07 00:40:15;;;;;;;6.03;2.05;;;;;;;14.75;65.86;100683.91;343790;28;1331;-67
2022/10/07 00:40:27;;;;;;;6.15;2.10;;;;;;;14.75;65.87;100683.91;344440;28;1699;-67
2022/10/07 00:40:40;;;;;;;5.22;2.03;;;;;;;14.75;66.32;100678.66;344105;28;2895;-67
2022/10/07 00:40:52;;;;;;;5.18;2.13;;;;;;;14.73;66.29;100685.72;343818;28;1107;-67
2022/10/07 00:41:05;;;;;;;4.53;2.10;;;;;;;14.73;65.88;100680.47;343605;28;1181;-67
2022/10/07 00:41:19;;;;;;;4.03;1.88;;;;;;;14.68;65.30;100679.75;343092;28;1824;-67
2022/10/07 00:41:37;;;;;;;5.72;1.83;;;;;;;14.70;65.63;100685.78;345018;28;2245;-66
2022/10/07 00:41:50;;;;;;;8.70;1.95;;;;;;;14.72;65.57;100680.50;344652;28;1840;-66
2022/10/07 00:42:02;;;;;;;8.07;2.20;;;;;;;14.72;65.51;100683.97;343821;28;1214;-66
2022/10/07 00:42:14;;;;;;;6.68;2.40;;;;;;;14.73;65.54;100672.63;343611;28;1070;-67
2022/10/07 00:42:28;;;;;;;8.95;2.30;;;;;;;14.73;65.55;100677.84;344509;28;2248;-67
2022/10/07 00:42:41;;;;;;;8.80;2.28;;;;;;;14.75;65.73;100678.66;344965;28;1041;-67
2022/10/07 00:42:53;;;;;;;5.60;2.00;;;;;;;14.75;65.74;100673.44;344729;28;1379;-66
2022/10/07 00:43:37;;;;;;;4.25;1.85;;;;;;;14.73;65.25;100680.47;345065;28;1274;-68
2022/10/07 00:43:49;;;;;;;5.90;2.10;;;;;;;14.73;65.51;100672.63;341561;28;1871;-67
2022/10/07 00:44:35;;;;;;;7.50;2.25;;;;;;;14.74;65.71;100676.94;341884;28;1601;-67
2022/10/07 00:44:47;;;;;;;4.63;2.00;;;;;;;14.77;65.81;100681.22;341049;28;1614;-67
2022/10/07 00:45:00;;;;;;;4.32;1.88;;;;;;;14.77;65.83;100676.84;341962;28;1268;-67
2022/10/07 00:45:16;;;;;;;4.18;1.95;;;;;;;14.74;65.74;100670.84;345577;28;1755;-68
2022/10/07 00:45:28;;;;;;;4.18;2.08;;;;;;;14.76;65.70;100680.34;346317;28;939;-68
2022/10/07 00:45:41;;;;;;;5.43;1.92;;;;;;;14.78;65.35;100678.53;345515;28;1934;-67
2022/10/07 00:45:56;;;;;;;5.07;1.73;;;;;;;14.77;65.41;100674.22;346030;28;1895;-67
2022/10/07 00:46:28;;;;;;;5.00;1.92;;;;;;;14.71;65.15;100678.81;346327;28;1205;-68
2022/10/07 00:46:40;;;;;;;5.47;1.95;;;;;;;14.71;65.18;100676.22;346319;28;1252;-68
2022/10/07 00:46:54;;;;;;;5.93;1.80;;;;;;;14.69;65.20;100675.38;345344;28;1319;-67
2022/10/07 00:47:10;;;;;;;5.75;1.83;;;;;;;14.68;65.43;100677.13;345071;28;1328;-67
2022/10/07 00:47:30;;;;;;;6.93;2.00;;;;;;;14.69;65.50;100673.63;345055;28;1200;-66
2022/10/07 00:47:45;;;;;;;8.70;2.10;;;;;;;14.68;65.99;100671.06;344992;28;1581;-68
2022/10/07 00:47:58;;;;;;;7.20;2.22;;;;;;;14.69;65.62;100667.53;345194;28;1102;-68
2022/10/07 00:48:11;;;;;;;7.90;2.58;;;;;;;14.72;65.64;100673.50;345238;28;1166;-67
2022/10/07 00:48:27;;;;;;;9.10;2.70;;;;;;;14.73;65.60;100670.00;344969;28;1385;-67
2022/10/07 00:48:39;;;;;;;5.97;2.25;;;;;;;14.74;65.56;100671.69;345301;28;1045;-67
2022/10/07 00:48:51;;;;;;;5.18;2.00;;;;;;;14.75;65.45;100669.97;345001;28;1050;-67
2022/10/07 00:49:09;;;;;;;4.43;1.90;;;;;;;14.75;65.33;100672.56;344717;28;1840;-67
2022/10/07 00:49:21;;;;;;;6.43;2.10;;;;;;;14.77;65.17;100671.59;343735;28;1325;-68
2022/10/07 00:49:43;;;;;;;6.88;2.10;;;;;;;14.77;64.85;100666.38;343635;28;1196;-68
2022/10/07 00:50:26;;;;;;;5.50;2.08;;;;;;;14.80;64.78;100662.78;343669;28;1020;-68
2022/10/07 00:50:38;;;;;;;6.65;1.77;;;;;;;14.82;64.67;100663.59;338100;29;1029;-68
2022/10/07 00:50:55;;;;;;;6.13;1.80;;;;;;;14.83;64.56;100664.44;338179;29;1568;-68
2022/10/07 00:51:08;;;;;;;6.85;1.92;;;;;;;14.83;64.50;100664.44;343191;28;1215;-68
2022/10/07 00:51:20;;;;;;;7.15;2.10;;;;;;;14.84;64.68;100668.78;344164;28;1362;-67
2022/10/07 00:51:34;;;;;;;5.68;1.95;;;;;;;14.85;64.73;100673.09;345121;28;1070;-67
2022/10/07 00:51:49;;;;;;;5.38;1.92;;;;;;;14.84;64.67;100666.16;345050;28;1432;-67
2022/10/07 00:52:01;;;;;;;6.57;2.00;;;;;;;14.85;64.41;100670.47;344829;28;1467;-67
2022/10/07 00:52:15;;;;;;;5.85;1.90;;;;;;;14.84;64.63;100660.94;344781;28;1030;-67
2022/10/07 00:52:31;;;;;;;5.68;1.90;;;;;;;14.86;64.74;100666.97;343661;28;1019;-67
2022/10/07 00:52:48;;;;;;;4.13;1.75;;;;;;;14.85;64.61;100670.47;343716;28;989;-67
2022/10/07 00:53:01;;;;;;;2.95;1.60;;;;;;;14.84;64.43;100671.41;343751;28;1056;-67
2022/10/07 00:53:13;;;;;;;3.63;1.60;;;;;;;14.83;64.97;100669.69;343748;28;1184;-67
2022/10/07 00:53:29;;;;;;;4.25;1.60;;;;;;;14.85;64.73;100662.63;344954;28;1417;-67
2022/10/07 00:53:47;;;;;;;6.88;1.85;;;;;;;14.85;64.73;100665.25;345363;28;1965;-67
2022/10/07 00:54:01;;;;;;;8.73;1.80;;;;;;;14.85;64.67;100668.75;344578;28;1059;-67
2022/10/07 00:54:15;;;;;;;7.03;1.77;;;;;;;14.85;64.48;100670.47;344846;28;1067;-67
2022/10/07 00:54:27;;;;;;;6.43;1.98;;;;;;;14.85;64.68;100667.84;343257;28;1076;-67
2022/10/07 00:54:39;;;;;;;5.65;2.15;;;;;;;14.85;64.95;100665.25;344047;28;1722;-67
2022/10/07 00:54:54;;;;;;;5.25;2.00;;;;;;;14.83;65.05;100669.69;344945;28;1804;-67
2022/10/07 00:55:11;;;;;;;4.32;1.80;;;;;;;14.85;65.04;100667.84;344938;28;1115;-67
2022/10/07 00:55:26;;;;;;;5.90;2.00;;;;;;;14.85;64.86;100662.63;344696;28;1349;-67
2022/10/07 00:55:39;;;;;;;6.75;2.08;;;;;;;14.85;64.79;100660.88;345047;28;1107;-67
2022/10/07 00:55:51;;;;;;;5.57;1.85;;;;;;;14.86;65.06;100664.34;345165;28;1015;-67
2022/10/07 00:56:05;;;;;;;5.45;1.90;;;;;;;14.88;65.04;100657.28;345197;28;1456;-67
2022/10/07 00:56:18;;;;;;;4.10;1.90;;;;;;;14.89;64.94;100664.22;345066;28;1423;-67
2022/10/07 00:56:30;;;;;;;3.15;1.85;;;;;;;14.90;64.85;100668.56;345054;28;1061;-67
2022/10/07 00:56:45;;;;;;;4.03;1.88;;;;;;;14.88;64.90;100662.53;344414;28;1612;-67
2022/10/07 00:56:58;;;;;;;5.30;1.92;;;;;;;14.86;65.34;100657.34;344891;28;957;-67
2022/10/07 00:57:10;;;;;;;6.18;2.00;;;;;;;14.85;65.11;100663.50;345141;28;1070;-68
2022/10/07 00:57:25;;;;;;;5.20;2.05;;;;;;;14.84;64.73;100663.53;345073;28;1291;-68
2022/10/07 00:57:38;;;;;;;4.43;2.00;;;;;;;14.82;64.96;100668.81;345045;28;980;-68
2022/10/07 00:57:54;;;;;;;4.60;2.00;;;;;;;14.85;65.05;100666.13;345253;28;1250;-67
2022/10/07 00:58:08;;;;;;;4.53;1.80;;;;;;;14.84;65.30;100667.00;344949;28;1050;-67
2022/10/07 00:58:20;;;;;;;5.90;1.88;;;;;;;14.85;64.99;100657.38;345025;28;1415;-67
2022/10/07 00:58:34;;;;;;;6.20;2.00;;;;;;;14.86;64.83;100659.13;344693;28;2168;-67
2022/10/07 00:58:48;;;;;;;5.05;2.05;;;;;;;14.83;65.29;100667.94;344602;28;3681;-67
2022/10/07 00:59:00;;;;;;;5.00;2.00;;;;;;;14.85;65.22;100667.84;344808;28;1473;-67
2022/10/07 00:59:14;;;;;;;4.50;1.88;;;;;;;14.86;65.12;100665.19;345504;28;1264;-67
2022/10/07 00:59:26;;;;;;;4.60;1.83;;;;;;;14.86;64.82;100664.34;344643;28;1226;-67
2022/10/07 00:59:38;;;;;;;4.35;1.85;;;;;;;14.87;64.47;100664.31;344982;28;1103;-67
2022/10/07 00:59:54;;;;;;;6.00;1.92;;;;;;;14.82;64.36;100662.75;345239;28;1031;-67
2022/10/07 01:00:06;;;;;;;8.57;2.00;;;;;;;14.81;64.33;100664.50;344748;28;1163;-67
2022/10/07 01:00:22;;;;;;;8.60;2.15;;;;;;;14.82;64.48;100667.97;344445;28;1335;-67
2022/10/07 01:00:36;;;;;;;5.93;2.10;;;;;;;14.84;64.61;100666.16;345043;28;1333;-67
2022/10/07 01:00:48;;;;;;;4.60;2.08;;;;;;;14.83;64.68;100659.19;346070;28;1456;-67
2022/10/07 01:01:01;;;;;;;4.82;2.10;;;;;;;14.86;64.66;100659.13;346067;28;1330;-67
2022/10/07 01:01:13;;;;;;;5.20;1.92;;;;;;;14.85;64.57;100658.28;346388;28;1038;-67
2022/10/07 01:01:25;;;;;;;5.50;1.88;;;;;;;14.84;64.45;100666.16;346006;28;1249;-67
2022/10/07 01:01:40;;;;;;;5.25;1.77;;;;;;;14.85;64.63;100662.63;345932;28;1209;-67
2022/10/07 01:01:53;;;;;;;5.68;1.90;;;;;;;14.87;64.56;100660.81;346147;28;1195;-67
2022/10/07 01:02:06;;;;;;;5.90;2.10;;;;;;;14.88;64.57;100662.53;346401;28;1086;-67
2022/10/07 01:02:19;;;;;;;6.45;2.03;;;;;;;14.85;64.36;100657.38;345054;28;2257;-67
2022/10/07 01:02:31;;;;;;;4.78;1.73;;;;;;;14.86;64.40;100653.88;346053;28;1819;-68
2022/10/07 01:02:43;;;;;;;4.95;1.80;;;;;;;14.87;64.63;100660.81;344878;28;1174;-68
2022/10/07 01:02:56;;;;;;;5.85;1.98;;;;;;;14.84;64.75;100655.69;344907;28;1030;-68
2022/10/07 01:03:08;;;;;;;9.45;2.22;;;;;;;14.85;64.65;100662.63;344845;28;1124;-68
2022/10/07 01:03:20;;;;;;;9.35;2.20;;;;;;;14.83;64.60;100653.97;344998;28;1335;-67
2022/10/07 01:03:34;;;;;;;4.75;1.83;;;;;;;14.84;64.50;100646.06;345088;28;1058;-67
2022/10/07 01:03:48;;;;;;;7.07;2.00;;;;;;;14.85;64.27;100653.03;344634;28;2087;-67
2022/10/07 01:04:00;;;;;;;6.82;2.00;;;;;;;14.86;64.34;100653.88;344494;28;1404;-67
2022/10/07 01:04:13;;;;;;;4.78;1.77;;;;;;;14.86;64.31;100651.25;345082;28;1699;-67
2022/10/07 01:04:25;;;;;;;4.15;1.80;;;;;;;14.88;64.20;100652.06;345036;28;1319;-67
2022/10/07 01:04:38;;;;;;;4.38;1.88;;;;;;;14.88;64.43;100652.06;344866;28;1031;-67